sensor_id;sensor_type;location;lat;lon;timestamp;temperature;humidity
14723;DHT22;7452;55.594;12.986;2022-10-15T00:02:06;12.90;99.90
14723;DHT22;7452;55.594;12.986;2022-10-15T00:04:33;12.90;99.90
14723;DHT22;7452;55.594;12.986;2022-10-15T00:07:03;12.90;99.90
14723;DHT22;7452;55.594;12.986;2022-10-15T00:09:39;13.00;99.90
14723;DHT22;7452;55.594;12.986;2022-10-15T00:12:11;13.00;99.90
14723;DHT22;7452;55.594;12.986;2022-10-15T00:14:39;13.00;99.90
14723;DHT22;7452;55.594;12.986;2022-10-15T00:17:07;13.00;99.90
14723;DHT22;7452;55.594;12.986;2022-10-15T00:19:36;13.10;99.90
14723;DHT22;7452;55.594;12.986;2022-10-15T00:22:04;13.10;99.90
14723;DHT22;7452;55.594;12.986;2022-10-15T00:24:31;13.10;99.90
14723;DHT22;7452;55.594;12.986;2022-10-15T00:27:01;13.10;99.90
14723;DHT22;7452;55.594;12.986;2022-10-15T00:29:28;13.10;99.90
14723;DHT22;7452;55.594;12.986;2022-10-15T00:31:56;13.10;99.90
14723;DHT22;7452;55.594;12.986;2022-10-15T00:34:23;13.10;99.90
14723;DHT22;7452;55.594;12.986;2022-10-15T00:36:51;13.10;99.90
14723;DHT22;7452;55.594;12.986;2022-10-15T00:39:19;13.10;99.90
14723;DHT22;7452;55.594;12.986;2022-10-15T00:41:46;13.10;99.90
14723;DHT22;7452;55.594;12.986;2022-10-15T00:47:35;13.10;99.90
14723;DHT22;7452;55.594;12.986;2022-10-15T00:50:06;13.10;99.90
14723;DHT22;7452;55.594;12.986;2022-10-15T00:52:41;13.10;99.90
14723;DHT22;7452;55.594;12.986;2022-10-15T00:55:17;13.20;99.90
14723;DHT22;7452;55.594;12.986;2022-10-15T00:57:47;13.20;99.90
14723;DHT22;7452;55.594;12.986;2022-10-15T01:00:18;13.20;99.90
14723;DHT22;7452;55.594;12.986;2022-10-15T01:02:47;13.20;99.90
14723;DHT22;7452;55.594;12.986;2022-10-15T01:05:20;13.20;99.90
14723;DHT22;7452;55.594;12.986;2022-10-15T01:07:48;13.20;99.90
14723;DHT22;7452;55.594;12.986;2022-10-15T01:10:20;13.20;99.90
14723;DHT22;7452;55.594;12.986;2022-10-15T01:12:57;13.20;99.90
14723;DHT22;7452;55.594;12.986;2022-10-15T01:15:34;13.20;99.90
14723;DHT22;7452;55.594;12.986;2022-10-15T01:18:11;13.20;99.90
14723;DHT22;7452;55.594;12.986;2022-10-15T01:20:54;13.10;99.90
14723;DHT22;7452;55.594;12.986;2022-10-15T01:27:21;13.20;99.90
14723;DHT22;7452;55.594;12.986;2022-10-15T01:30:30;13.20;99.90
14723;DHT22;7452;55.594;12.986;2022-10-15T01:33:25;13.20;99.90
14723;DHT22;7452;55.594;12.986;2022-10-15T01:36:00;13.20;99.90
14723;DHT22;7452;55.594;12.986;2022-10-15T01:38:42;13.20;99.90
14723;DHT22;7452;55.594;12.986;2022-10-15T01:41:17;13.20;99.90
14723;DHT22;7452;55.594;12.986;2022-10-15T01:43:56;13.20;99.90
14723;DHT22;7452;55.594;12.986;2022-10-15T01:46:41;13.20;99.90
14723;DHT22;7452;55.594;12.986;2022-10-15T01:49:15;13.30;99.90
14723;DHT22;7452;55.594;12.986;2022-10-15T01:51:47;13.30;99.90
14723;DHT22;7452;55.594;12.986;2022-10-15T01:54:18;13.30;99.90
14723;DHT22;7452;55.594;12.986;2022-10-15T01:56:47;13.30;99.90
14723;DHT22;7452;55.594;12.986;2022-10-15T01:59:23;13.30;99.90
14723;DHT22;7452;55.594;12.986;2022-10-15T02:02:01;13.40;99.90
14723;DHT22;7452;55.594;12.986;2022-10-15T02:04:30;13.40;99.90
14723;DHT22;7452;55.594;12.986;2022-10-15T02:07:01;13.30;99.90
14723;DHT22;7452;55.594;12.986;2022-10-15T02:09:37;13.40;99.90
14723;DHT22;7452;55.594;12.986;2022-10-15T02:12:13;13.40;99.90
14723;DHT22;7452;55.594;12.986;2022-10-15T02:14:49;13.40;99.90
14723;DHT22;7452;55.594;12.986;2022-10-15T02:17:31;13.30;99.90
14723;DHT22;7452;55.594;12.986;2022-10-15T02:20:08;13.30;99.90
14723;DHT22;7452;55.594;12.986;2022-10-15T02:22:42;13.30;99.90
14723;DHT22;7452;55.594;12.986;2022-10-15T02:25:15;13.30;99.90
14723;DHT22;7452;55.594;12.986;2022-10-15T02:27:46;13.20;99.90
14723;DHT22;7452;55.594;12.986;2022-10-15T02:30:15;13.20;99.90
14723;DHT22;7452;55.594;12.986;2022-10-15T02:32:49;13.20;99.90
14723;DHT22;7452;55.594;12.986;2022-10-15T02:35:18;13.20;99.90
14723;DHT22;7452;55.594;12.986;2022-10-15T02:37:50;13.10;99.90
14723;DHT22;7452;55.594;12.986;2022-10-15T02:40:21;13.10;99.90
14723;DHT22;7452;55.594;12.986;2022-10-15T02:42:50;13.10;99.90
14723;DHT22;7452;55.594;12.986;2022-10-15T02:45:18;13.00;99.90
14723;DHT22;7452;55.594;12.986;2022-10-15T02:47:47;13.00;99.90
14723;DHT22;7452;55.594;12.986;2022-10-15T02:50:14;13.00;99.90
14723;DHT22;7452;55.594;12.986;2022-10-15T02:52:41;13.00;99.90
14723;DHT22;7452;55.594;12.986;2022-10-15T02:55:09;13.00;99.90
14723;DHT22;7452;55.594;12.986;2022-10-15T02:57:36;13.00;99.90
14723;DHT22;7452;55.594;12.986;2022-10-15T03:00:06;12.90;99.90
14723;DHT22;7452;55.594;12.986;2022-10-15T03:02:34;12.90;99.90
14723;DHT22;7452;55.594;12.986;2022-10-15T03:05:06;12.80;99.90
14723;DHT22;7452;55.594;12.986;2022-10-15T03:07:33;12.90;99.90
14723;DHT22;7452;55.594;12.986;2022-10-15T03:10:03;12.80;99.90
14723;DHT22;7452;55.594;12.986;2022-10-15T03:12:31;12.80;99.90
14723;DHT22;7452;55.594;12.986;2022-10-15T03:14:59;12.80;99.90
14723;DHT22;7452;55.594;12.986;2022-10-15T03:17:29;12.80;99.90
14723;DHT22;7452;55.594;12.986;2022-10-15T03:19:56;12.80;99.90
14723;DHT22;7452;55.594;12.986;2022-10-15T03:22:25;12.80;99.90
14723;DHT22;7452;55.594;12.986;2022-10-15T03:24:52;12.80;99.90
14723;DHT22;7452;55.594;12.986;2022-10-15T03:27:22;12.80;99.90
14723;DHT22;7452;55.594;12.986;2022-10-15T03:29:49;12.80;99.90
14723;DHT22;7452;55.594;12.986;2022-10-15T03:32:19;12.80;99.90
14723;DHT22;7452;55.594;12.986;2022-10-15T03:34:47;12.70;99.90
14723;DHT22;7452;55.594;12.986;2022-10-15T03:37:15;12.70;99.90
14723;DHT22;7452;55.594;12.986;2022-10-15T03:39:43;12.80;99.90
14723;DHT22;7452;55.594;12.986;2022-10-15T03:42:13;12.70;99.90
14723;DHT22;7452;55.594;12.986;2022-10-15T03:44:43;12.80;99.90
14723;DHT22;7452;55.594;12.986;2022-10-15T03:47:11;12.80;99.90
14723;DHT22;7452;55.594;12.986;2022-10-15T03:49:45;12.80;99.90
14723;DHT22;7452;55.594;12.986;2022-10-15T03:52:15;12.70;99.90
14723;DHT22;7452;55.594;12.986;2022-10-15T03:54:44;12.70;99.90
14723;DHT22;7452;55.594;12.986;2022-10-15T03:57:12;12.70;99.90
14723;DHT22;7452;55.594;12.986;2022-10-15T03:59:42;12.70;99.90
14723;DHT22;7452;55.594;12.986;2022-10-15T04:02:10;12.70;99.90
14723;DHT22;7452;55.594;12.986;2022-10-15T04:04:42;12.70;99.90
14723;DHT22;7452;55.594;12.986;2022-10-15T04:07:11;12.70;99.90
14723;DHT22;7452;55.594;12.986;2022-10-15T04:09:38;12.70;99.90
14723;DHT22;7452;55.594;12.986;2022-10-15T04:12:07;12.70;99.90
14723;DHT22;7452;55.594;12.986;2022-10-15T04:14:44;12.70;99.90
14723;DHT22;7452;55.594;12.986;2022-10-15T04:17:13;12.70;99.90
14723;DHT22;7452;55.594;12.986;2022-10-15T04:19:40;12.70;99.90
14723;DHT22;7452;55.594;12.986;2022-10-15T04:22:15;12.70;99.90
14723;DHT22;7452;55.594;12.986;2022-10-15T04:24:42;12.70;99.90
14723;DHT22;7452;55.594;12.986;2022-10-15T04:27:17;12.70;99.90
14723;DHT22;7452;55.594;12.986;2022-10-15T04:29:49;12.70;99.90
14723;DHT22;7452;55.594;12.986;2022-10-15T04:32:16;12.70;99.90
14723;DHT22;7452;55.594;12.986;2022-10-15T04:34:43;12.70;99.90
14723;DHT22;7452;55.594;12.986;2022-10-15T04:37:20;12.80;99.90
14723;DHT22;7452;55.594;12.986;2022-10-15T04:39:48;12.70;99.90
14723;DHT22;7452;55.594;12.986;2022-10-15T04:42:16;12.70;99.90
14723;DHT22;7452;55.594;12.986;2022-10-15T04:44:49;12.70;99.90
14723;DHT22;7452;55.594;12.986;2022-10-15T04:47:17;12.80;99.90
14723;DHT22;7452;55.594;12.986;2022-10-15T04:49:44;12.80;99.90
14723;DHT22;7452;55.594;12.986;2022-10-15T04:52:11;12.80;99.90
14723;DHT22;7452;55.594;12.986;2022-10-15T04:54:39;12.80;99.90
14723;DHT22;7452;55.594;12.986;2022-10-15T04:57:07;12.80;99.90
14723;DHT22;7452;55.594;12.986;2022-10-15T04:59:36;12.80;99.90
14723;DHT22;7452;55.594;12.986;2022-10-15T05:02:06;12.80;99.90
14723;DHT22;7452;55.594;12.986;2022-10-15T05:04:33;12.70;99.90
14723;DHT22;7452;55.594;12.986;2022-10-15T05:07:01;12.70;99.90
14723;DHT22;7452;55.594;12.986;2022-10-15T05:09:28;12.80;99.90
14723;DHT22;7452;55.594;12.986;2022-10-15T05:11:58;12.70;99.90
14723;DHT22;7452;55.594;12.986;2022-10-15T05:14:26;12.70;99.90
14723;DHT22;7452;55.594;12.986;2022-10-15T05:16:57;12.70;99.90
14723;DHT22;7452;55.594;12.986;2022-10-15T05:19:25;12.70;99.90
14723;DHT22;7452;55.594;12.986;2022-10-15T05:21:53;12.70;99.90
14723;DHT22;7452;55.594;12.986;2022-10-15T05:24:23;12.70;99.90
14723;DHT22;7452;55.594;12.986;2022-10-15T05:26:51;12.70;99.90
14723;DHT22;7452;55.594;12.986;2022-10-15T05:29:20;12.70;99.90
14723;DHT22;7452;55.594;12.986;2022-10-15T05:31:52;12.80;99.90
14723;DHT22;7452;55.594;12.986;2022-10-15T05:34:23;12.80;99.90
14723;DHT22;7452;55.594;12.986;2022-10-15T05:36:54;12.70;99.90
14723;DHT22;7452;55.594;12.986;2022-10-15T05:39:24;12.70;99.90
14723;DHT22;7452;55.594;12.986;2022-10-15T05:41:52;12.70;99.90
14723;DHT22;7452;55.594;12.986;2022-10-15T05:44:21;12.70;99.90
14723;DHT22;7452;55.594;12.986;2022-10-15T05:46:51;12.70;99.90
14723;DHT22;7452;55.594;12.986;2022-10-15T05:49:17;12.70;99.90
14723;DHT22;7452;55.594;12.986;2022-10-15T05:51:49;12.70;99.90
14723;DHT22;7452;55.594;12.986;2022-10-15T05:54:16;12.70;99.90
14723;DHT22;7452;55.594;12.986;2022-10-15T05:56:43;12.70;99.90
14723;DHT22;7452;55.594;12.986;2022-10-15T05:59:11;12.70;99.90
14723;DHT22;7452;55.594;12.986;2022-10-15T06:01:39;12.70;99.90
14723;DHT22;7452;55.594;12.986;2022-10-15T06:04:07;12.80;99.90
14723;DHT22;7452;55.594;12.986;2022-10-15T06:06:35;12.80;99.90
14723;DHT22;7452;55.594;12.986;2022-10-15T06:09:04;12.80;99.90
14723;DHT22;7452;55.594;12.986;2022-10-15T06:11:31;12.70;99.90
14723;DHT22;7452;55.594;12.986;2022-10-15T06:13:58;12.80;99.90
14723;DHT22;7452;55.594;12.986;2022-10-15T06:16:28;12.80;99.90
14723;DHT22;7452;55.594;12.986;2022-10-15T06:18:56;12.80;99.90
14723;DHT22;7452;55.594;12.986;2022-10-15T06:21:32;12.80;99.90
14723;DHT22;7452;55.594;12.986;2022-10-15T06:24:00;12.80;99.90
14723;DHT22;7452;55.594;12.986;2022-10-15T06:26:29;12.80;99.90
14723;DHT22;7452;55.594;12.986;2022-10-15T06:29:04;12.80;99.90
14723;DHT22;7452;55.594;12.986;2022-10-15T06:31:33;12.80;99.90
14723;DHT22;7452;55.594;12.986;2022-10-15T06:34:02;12.90;99.90
14723;DHT22;7452;55.594;12.986;2022-10-15T06:36:34;12.80;99.90
14723;DHT22;7452;55.594;12.986;2022-10-15T06:39:02;12.80;99.90
14723;DHT22;7452;55.594;12.986;2022-10-15T06:41:31;12.90;99.90
14723;DHT22;7452;55.594;12.986;2022-10-15T06:43:58;12.80;99.90
14723;DHT22;7452;55.594;12.986;2022-10-15T06:46:26;12.90;99.90
14723;DHT22;7452;55.594;12.986;2022-10-15T06:48:56;12.90;99.90
14723;DHT22;7452;55.594;12.986;2022-10-15T06:51:26;12.90;99.90
14723;DHT22;7452;55.594;12.986;2022-10-15T06:53:54;12.90;99.90
14723;DHT22;7452;55.594;12.986;2022-10-15T06:56:22;12.90;99.90
14723;DHT22;7452;55.594;12.986;2022-10-15T06:58:52;12.90;99.90
14723;DHT22;7452;55.594;12.986;2022-10-15T07:01:20;13.00;99.90
14723;DHT22;7452;55.594;12.986;2022-10-15T07:03:48;13.00;99.90
14723;DHT22;7452;55.594;12.986;2022-10-15T07:06:16;13.00;99.90
14723;DHT22;7452;55.594;12.986;2022-10-15T07:08:43;13.10;99.90
14723;DHT22;7452;55.594;12.986;2022-10-15T07:11:11;13.00;99.90
14723;DHT22;7452;55.594;12.986;2022-10-15T07:13:40;13.10;99.90
14723;DHT22;7452;55.594;12.986;2022-10-15T07:16:11;13.20;99.90
14723;DHT22;7452;55.594;12.986;2022-10-15T07:18:38;13.20;99.90
14723;DHT22;7452;55.594;12.986;2022-10-15T07:21:07;13.10;99.90
14723;DHT22;7452;55.594;12.986;2022-10-15T07:23:38;13.20;99.90
14723;DHT22;7452;55.594;12.986;2022-10-15T07:26:06;13.20;99.90
14723;DHT22;7452;55.594;12.986;2022-10-15T07:28:33;13.20;99.90
14723;DHT22;7452;55.594;12.986;2022-10-15T07:31:01;13.20;99.90
14723;DHT22;7452;55.594;12.986;2022-10-15T07:33:32;13.20;99.90
14723;DHT22;7452;55.594;12.986;2022-10-15T07:36:02;13.30;99.90
14723;DHT22;7452;55.594;12.986;2022-10-15T07:38:30;13.30;99.90
14723;DHT22;7452;55.594;12.986;2022-10-15T07:40:58;13.30;99.90
14723;DHT22;7452;55.594;12.986;2022-10-15T07:43:25;13.30;99.90
14723;DHT22;7452;55.594;12.986;2022-10-15T07:45:53;13.30;99.90
14723;DHT22;7452;55.594;12.986;2022-10-15T07:48:23;13.30;99.90
14723;DHT22;7452;55.594;12.986;2022-10-15T07:50:56;13.20;99.90
14723;DHT22;7452;55.594;12.986;2022-10-15T07:53:25;13.20;99.90
14723;DHT22;7452;55.594;12.986;2022-10-15T07:55:53;13.20;99.90
14723;DHT22;7452;55.594;12.986;2022-10-15T07:58:20;13.20;99.90
14723;DHT22;7452;55.594;12.986;2022-10-15T08:00:47;13.20;99.90
14723;DHT22;7452;55.594;12.986;2022-10-15T08:03:14;13.20;99.90
14723;DHT22;7452;55.594;12.986;2022-10-15T08:05:42;13.20;99.90
14723;DHT22;7452;55.594;12.986;2022-10-15T08:08:12;13.20;99.90
14723;DHT22;7452;55.594;12.986;2022-10-15T08:10:39;13.20;99.90
14723;DHT22;7452;55.594;12.986;2022-10-15T08:13:07;13.30;99.90
14723;DHT22;7452;55.594;12.986;2022-10-15T08:15:38;13.30;99.90
14723;DHT22;7452;55.594;12.986;2022-10-15T08:18:06;13.40;99.90
14723;DHT22;7452;55.594;12.986;2022-10-15T08:20:35;13.40;99.90
14723;DHT22;7452;55.594;12.986;2022-10-15T08:23:01;13.40;99.90
14723;DHT22;7452;55.594;12.986;2022-10-15T08:25:30;13.50;99.90
14723;DHT22;7452;55.594;12.986;2022-10-15T08:27:58;13.50;99.90
14723;DHT22;7452;55.594;12.986;2022-10-15T08:30:25;13.50;99.90
14723;DHT22;7452;55.594;12.986;2022-10-15T08:32:52;13.40;99.90
14723;DHT22;7452;55.594;12.986;2022-10-15T08:35:19;13.40;99.90
14723;DHT22;7452;55.594;12.986;2022-10-15T08:37:47;13.30;99.90
14723;DHT22;7452;55.594;12.986;2022-10-15T08:40:15;13.40;99.90
14723;DHT22;7452;55.594;12.986;2022-10-15T08:42:45;13.40;99.90
14723;DHT22;7452;55.594;12.986;2022-10-15T08:45:16;13.40;99.90
14723;DHT22;7452;55.594;12.986;2022-10-15T08:47:47;13.40;99.90
14723;DHT22;7452;55.594;12.986;2022-10-15T08:50:25;13.40;99.90
14723;DHT22;7452;55.594;12.986;2022-10-15T08:52:54;13.40;99.90
14723;DHT22;7452;55.594;12.986;2022-10-15T08:55:26;13.50;99.90
14723;DHT22;7452;55.594;12.986;2022-10-15T08:57:59;13.40;99.90
14723;DHT22;7452;55.594;12.986;2022-10-15T09:00:31;13.40;99.90
14723;DHT22;7452;55.594;12.986;2022-10-15T09:03:05;13.40;99.90
14723;DHT22;7452;55.594;12.986;2022-10-15T09:05:42;13.40;99.90
14723;DHT22;7452;55.594;12.986;2022-10-15T09:08:20;13.50;99.90
14723;DHT22;7452;55.594;12.986;2022-10-15T09:10:51;13.50;99.90
14723;DHT22;7452;55.594;12.986;2022-10-15T09:13:25;13.60;99.90
14723;DHT22;7452;55.594;12.986;2022-10-15T09:15:54;13.80;99.90
14723;DHT22;7452;55.594;12.986;2022-10-15T09:18:24;13.90;99.90
14723;DHT22;7452;55.594;12.986;2022-10-15T09:20:53;14.10;99.90
14723;DHT22;7452;55.594;12.986;2022-10-15T09:23:22;14.10;99.90
14723;DHT22;7452;55.594;12.986;2022-10-15T09:25:57;14.00;99.90
14723;DHT22;7452;55.594;12.986;2022-10-15T09:28:34;14.10;99.90
14723;DHT22;7452;55.594;12.986;2022-10-15T09:31:07;14.10;99.90
14723;DHT22;7452;55.594;12.986;2022-10-15T09:33:38;14.10;99.90
14723;DHT22;7452;55.594;12.986;2022-10-15T09:36:15;14.10;99.90
14723;DHT22;7452;55.594;12.986;2022-10-15T09:38:54;14.20;99.90
14723;DHT22;7452;55.594;12.986;2022-10-15T09:41:32;14.20;99.90
14723;DHT22;7452;55.594;12.986;2022-10-15T09:44:04;14.10;99.90
14723;DHT22;7452;55.594;12.986;2022-10-15T09:46:43;14.10;99.90
14723;DHT22;7452;55.594;12.986;2022-10-15T09:49:13;14.20;99.90
14723;DHT22;7452;55.594;12.986;2022-10-15T09:51:47;14.20;99.90
14723;DHT22;7452;55.594;12.986;2022-10-15T09:54:20;14.20;99.90
14723;DHT22;7452;55.594;12.986;2022-10-15T09:56:53;14.20;99.90
14723;DHT22;7452;55.594;12.986;2022-10-15T09:59:22;14.10;99.90
14723;DHT22;7452;55.594;12.986;2022-10-15T10:01:57;14.10;99.90
14723;DHT22;7452;55.594;12.986;2022-10-15T10:04:26;14.10;99.90
14723;DHT22;7452;55.594;12.986;2022-10-15T10:06:55;14.10;99.90
14723;DHT22;7452;55.594;12.986;2022-10-15T10:09:25;14.10;99.90
14723;DHT22;7452;55.594;12.986;2022-10-15T10:11:58;14.10;99.90
14723;DHT22;7452;55.594;12.986;2022-10-15T10:14:29;14.10;99.90
14723;DHT22;7452;55.594;12.986;2022-10-15T10:17:13;14.10;99.90
14723;DHT22;7452;55.594;12.986;2022-10-15T10:19:41;14.10;99.90
14723;DHT22;7452;55.594;12.986;2022-10-15T10:22:14;14.10;99.90
14723;DHT22;7452;55.594;12.986;2022-10-15T10:24:42;14.20;99.90
14723;DHT22;7452;55.594;12.986;2022-10-15T10:27:19;14.20;99.90
14723;DHT22;7452;55.594;12.986;2022-10-15T10:29:57;14.20;99.90
14723;DHT22;7452;55.594;12.986;2022-10-15T10:32:28;14.20;99.90
14723;DHT22;7452;55.594;12.986;2022-10-15T10:34:56;14.20;99.90
14723;DHT22;7452;55.594;12.986;2022-10-15T10:37:24;14.20;99.90
14723;DHT22;7452;55.594;12.986;2022-10-15T10:39:53;14.30;99.90
14723;DHT22;7452;55.594;12.986;2022-10-15T10:42:31;14.40;99.90
14723;DHT22;7452;55.594;12.986;2022-10-15T10:45:18;14.50;99.90
14723;DHT22;7452;55.594;12.986;2022-10-15T10:47:46;14.60;99.90
14723;DHT22;7452;55.594;12.986;2022-10-15T10:50:31;14.70;99.90
14723;DHT22;7452;55.594;12.986;2022-10-15T10:53:12;14.80;99.90
14723;DHT22;7452;55.594;12.986;2022-10-15T10:55:41;14.80;99.90
14723;DHT22;7452;55.594;12.986;2022-10-15T10:58:17;14.80;99.90
14723;DHT22;7452;55.594;12.986;2022-10-15T11:00:47;14.80;99.90
14723;DHT22;7452;55.594;12.986;2022-10-15T11:03:20;14.80;99.90
14723;DHT22;7452;55.594;12.986;2022-10-15T11:05:49;14.90;99.90
14723;DHT22;7452;55.594;12.986;2022-10-15T11:08:26;14.90;99.90
14723;DHT22;7452;55.594;12.986;2022-10-15T11:11:03;14.90;99.90
14723;DHT22;7452;55.594;12.986;2022-10-15T11:13:47;14.90;99.90
14723;DHT22;7452;55.594;12.986;2022-10-15T11:16:23;14.80;99.90
14723;DHT22;7452;55.594;12.986;2022-10-15T11:19:12;14.80;99.90
14723;DHT22;7452;55.594;12.986;2022-10-15T11:21:53;14.90;99.90
14723;DHT22;7452;55.594;12.986;2022-10-15T11:24:30;15.00;99.90
14723;DHT22;7452;55.594;12.986;2022-10-15T11:27:13;15.00;99.90
14723;DHT22;7452;55.594;12.986;2022-10-15T11:29:52;15.00;99.90
14723;DHT22;7452;55.594;12.986;2022-10-15T11:32:32;14.90;99.90
14723;DHT22;7452;55.594;12.986;2022-10-15T11:35:25;14.90;99.90
14723;DHT22;7452;55.594;12.986;2022-10-15T11:38:03;14.90;99.90
14723;DHT22;7452;55.594;12.986;2022-10-15T11:40:42;14.80;99.90
14723;DHT22;7452;55.594;12.986;2022-10-15T11:43:16;14.80;99.90
14723;DHT22;7452;55.594;12.986;2022-10-15T11:45:57;14.80;99.90
14723;DHT22;7452;55.594;12.986;2022-10-15T11:48:38;14.80;99.90
14723;DHT22;7452;55.594;12.986;2022-10-15T11:51:13;14.80;99.90
14723;DHT22;7452;55.594;12.986;2022-10-15T11:54:07;14.80;99.90
14723;DHT22;7452;55.594;12.986;2022-10-15T11:56:41;14.70;99.90
14723;DHT22;7452;55.594;12.986;2022-10-15T11:59:21;14.60;99.90
14723;DHT22;7452;55.594;12.986;2022-10-15T12:01:53;14.60;99.90
14723;DHT22;7452;55.594;12.986;2022-10-15T12:04:29;14.60;99.90
14723;DHT22;7452;55.594;12.986;2022-10-15T12:07:00;14.60;99.90
14723;DHT22;7452;55.594;12.986;2022-10-15T12:09:30;14.60;99.90
14723;DHT22;7452;55.594;12.986;2022-10-15T12:12:05;14.60;99.90
14723;DHT22;7452;55.594;12.986;2022-10-15T12:14:38;14.70;99.90
14723;DHT22;7452;55.594;12.986;2022-10-15T12:17:13;14.70;99.90
14723;DHT22;7452;55.594;12.986;2022-10-15T12:19:52;14.80;99.90
14723;DHT22;7452;55.594;12.986;2022-10-15T12:22:31;14.70;99.90
14723;DHT22;7452;55.594;12.986;2022-10-15T12:25:00;14.70;99.90
14723;DHT22;7452;55.594;12.986;2022-10-15T12:27:30;14.70;99.90
14723;DHT22;7452;55.594;12.986;2022-10-15T12:30:20;14.70;99.90
14723;DHT22;7452;55.594;12.986;2022-10-15T12:32:49;14.70;99.90
14723;DHT22;7452;55.594;12.986;2022-10-15T12:35:32;14.70;99.90
14723;DHT22;7452;55.594;12.986;2022-10-15T12:38:09;14.70;99.90
14723;DHT22;7452;55.594;12.986;2022-10-15T12:40:38;14.70;99.90
14723;DHT22;7452;55.594;12.986;2022-10-15T12:43:13;14.80;99.90
14723;DHT22;7452;55.594;12.986;2022-10-15T12:45:48;14.80;99.90
14723;DHT22;7452;55.594;12.986;2022-10-15T12:48:31;15.00;99.90
14723;DHT22;7452;55.594;12.986;2022-10-15T12:54:39;15.30;99.90
14723;DHT22;7452;55.594;12.986;2022-10-15T13:00:40;15.10;99.90
14723;DHT22;7452;55.594;12.986;2022-10-15T13:03:24;15.10;99.90
14723;DHT22;7452;55.594;12.986;2022-10-15T13:05:54;15.00;99.90
14723;DHT22;7452;55.594;12.986;2022-10-15T13:08:23;15.00;99.90
14723;DHT22;7452;55.594;12.986;2022-10-15T13:10:56;15.10;99.90
14723;DHT22;7452;55.594;12.986;2022-10-15T13:13:29;15.10;99.90
14723;DHT22;7452;55.594;12.986;2022-10-15T13:15:59;15.10;99.90
14723;DHT22;7452;55.594;12.986;2022-10-15T13:18:28;15.10;99.90
14723;DHT22;7452;55.594;12.986;2022-10-15T13:21:02;15.10;99.90
14723;DHT22;7452;55.594;12.986;2022-10-15T13:23:31;15.00;99.90
14723;DHT22;7452;55.594;12.986;2022-10-15T13:26:18;15.00;99.90
14723;DHT22;7452;55.594;12.986;2022-10-15T13:28:46;15.00;99.90
14723;DHT22;7452;55.594;12.986;2022-10-15T13:31:31;15.00;99.90
14723;DHT22;7452;55.594;12.986;2022-10-15T13:34:05;15.10;99.90
14723;DHT22;7452;55.594;12.986;2022-10-15T13:36:34;15.10;99.90
14723;DHT22;7452;55.594;12.986;2022-10-15T13:39:05;15.10;99.90
14723;DHT22;7452;55.594;12.986;2022-10-15T13:41:37;15.20;99.90
14723;DHT22;7452;55.594;12.986;2022-10-15T13:44:16;15.70;99.90
14723;DHT22;7452;55.594;12.986;2022-10-15T13:46:47;16.40;99.90
14723;DHT22;7452;55.594;12.986;2022-10-15T13:49:23;16.80;99.90
14723;DHT22;7452;55.594;12.986;2022-10-15T13:51:53;16.80;99.90
14723;DHT22;7452;55.594;12.986;2022-10-15T13:54:23;16.70;99.90
14723;DHT22;7452;55.594;12.986;2022-10-15T13:56:56;16.90;99.90
14723;DHT22;7452;55.594;12.986;2022-10-15T13:59:28;17.50;99.90
14723;DHT22;7452;55.594;12.986;2022-10-15T14:01:58;18.30;99.90
14723;DHT22;7452;55.594;12.986;2022-10-15T14:04:27;18.70;99.90
14723;DHT22;7452;55.594;12.986;2022-10-15T14:06:56;18.80;99.90
14723;DHT22;7452;55.594;12.986;2022-10-15T14:09:29;18.60;99.90
14723;DHT22;7452;55.594;12.986;2022-10-15T14:12:03;18.20;99.90
14723;DHT22;7452;55.594;12.986;2022-10-15T14:14:34;17.80;99.90
14723;DHT22;7452;55.594;12.986;2022-10-15T14:17:06;17.70;99.90
14723;DHT22;7452;55.594;12.986;2022-10-15T14:19:35;17.50;99.90
14723;DHT22;7452;55.594;12.986;2022-10-15T14:22:03;17.40;99.90
14723;DHT22;7452;55.594;12.986;2022-10-15T14:24:32;17.10;99.90
14723;DHT22;7452;55.594;12.986;2022-10-15T14:27:04;17.20;99.90
14723;DHT22;7452;55.594;12.986;2022-10-15T14:29:37;17.50;99.90
14723;DHT22;7452;55.594;12.986;2022-10-15T14:32:22;17.40;99.90
14723;DHT22;7452;55.594;12.986;2022-10-15T14:34:50;17.20;99.90
14723;DHT22;7452;55.594;12.986;2022-10-15T14:37:40;17.10;99.90
14723;DHT22;7452;55.594;12.986;2022-10-15T14:40:16;17.10;99.90
14723;DHT22;7452;55.594;12.986;2022-10-15T14:42:48;17.20;99.90
14723;DHT22;7452;55.594;12.986;2022-10-15T14:45:23;17.20;99.90
14723;DHT22;7452;55.594;12.986;2022-10-15T14:47:52;17.20;99.90
14723;DHT22;7452;55.594;12.986;2022-10-15T14:50:21;17.20;99.90
14723;DHT22;7452;55.594;12.986;2022-10-15T14:52:51;16.90;99.90
14723;DHT22;7452;55.594;12.986;2022-10-15T14:55:27;16.70;99.90
14723;DHT22;7452;55.594;12.986;2022-10-15T14:58:07;16.70;99.90
14723;DHT22;7452;55.594;12.986;2022-10-15T15:00:39;16.70;99.90
14723;DHT22;7452;55.594;12.986;2022-10-15T15:03:10;16.60;99.90
14723;DHT22;7452;55.594;12.986;2022-10-15T15:05:46;16.20;99.90
14723;DHT22;7452;55.594;12.986;2022-10-15T15:08:13;15.90;99.90
14723;DHT22;7452;55.594;12.986;2022-10-15T15:10:41;15.70;99.90
14723;DHT22;7452;55.594;12.986;2022-10-15T15:13:12;15.40;99.90
14723;DHT22;7452;55.594;12.986;2022-10-15T15:15:41;15.20;99.90
14723;DHT22;7452;55.594;12.986;2022-10-15T15:18:09;15.00;99.90
14723;DHT22;7452;55.594;12.986;2022-10-15T15:20:36;14.80;99.90
14723;DHT22;7452;55.594;12.986;2022-10-15T15:23:04;14.70;99.90
14723;DHT22;7452;55.594;12.986;2022-10-15T15:25:34;14.60;99.90
14723;DHT22;7452;55.594;12.986;2022-10-15T15:28:02;14.50;99.90
14723;DHT22;7452;55.594;12.986;2022-10-15T15:30:30;14.50;99.90
14723;DHT22;7452;55.594;12.986;2022-10-15T15:33:00;14.50;99.90
14723;DHT22;7452;55.594;12.986;2022-10-15T15:35:34;14.50;99.90
14723;DHT22;7452;55.594;12.986;2022-10-15T15:38:05;14.50;99.90
14723;DHT22;7452;55.594;12.986;2022-10-15T15:40:33;14.40;99.90
14723;DHT22;7452;55.594;12.986;2022-10-15T15:43:00;14.40;99.90
14723;DHT22;7452;55.594;12.986;2022-10-15T15:45:27;14.40;99.90
14723;DHT22;7452;55.594;12.986;2022-10-15T15:47:57;14.40;99.90
14723;DHT22;7452;55.594;12.986;2022-10-15T15:50:28;14.30;99.90
14723;DHT22;7452;55.594;12.986;2022-10-15T15:52:55;14.20;99.90
14723;DHT22;7452;55.594;12.986;2022-10-15T15:55:22;14.20;99.90
14723;DHT22;7452;55.594;12.986;2022-10-15T15:57:50;14.10;99.90
14723;DHT22;7452;55.594;12.986;2022-10-15T16:00:17;14.10;99.90
14723;DHT22;7452;55.594;12.986;2022-10-15T16:02:44;14.10;99.90
14723;DHT22;7452;55.594;12.986;2022-10-15T16:05:15;14.10;99.90
14723;DHT22;7452;55.594;12.986;2022-10-15T16:07:45;14.00;99.90
14723;DHT22;7452;55.594;12.986;2022-10-15T16:10:16;14.00;99.90
14723;DHT22;7452;55.594;12.986;2022-10-15T16:12:47;14.00;99.90